createdAt,value
2023-04-15T00:00:21.947Z,1.83
2023-04-15T00:00:51.948Z,1.82
2023-04-15T00:01:21.942Z,1.8
2023-04-15T00:01:51.998Z,1.8
2023-04-15T00:02:22.191Z,1.76
2023-04-15T00:02:52.092Z,1.74
2023-04-15T00:03:22.183Z,1.72
2023-04-15T00:03:52.002Z,1.71
2023-04-15T00:04:22.032Z,1.76
2023-04-15T00:04:52.029Z,1.81
2023-04-15T00:05:21.942Z,1.86
2023-04-15T00:05:51.970Z,1.88
2023-04-15T00:06:21.942Z,1.86
2023-04-15T00:06:51.951Z,1.81
2023-04-15T00:07:21.950Z,1.75
2023-04-15T00:07:51.953Z,1.72
2023-04-15T00:08:21.946Z,1.7
2023-04-15T00:08:51.946Z,1.68
2023-04-15T00:09:21.947Z,1.66
2023-04-15T00:09:51.942Z,1.69
2023-04-15T00:10:21.953Z,1.74
2023-04-15T00:10:51.943Z,1.77
2023-04-15T00:11:21.946Z,1.75
2023-04-15T00:11:51.952Z,1.71
2023-04-15T00:12:21.949Z,1.69
2023-04-15T00:12:51.954Z,1.71
2023-04-15T00:13:21.965Z,1.78
2023-04-15T00:13:51.948Z,1.82
2023-04-15T00:14:21.950Z,1.8
2023-04-15T00:14:51.950Z,1.8
2023-04-15T00:15:21.954Z,1.74
2023-04-15T00:15:51.958Z,1.72
2023-04-15T00:16:21.992Z,1.72
2023-04-15T00:16:51.999Z,1.71
2023-04-15T00:17:21.967Z,1.72
2023-04-15T00:17:52.024Z,1.71
2023-04-15T00:18:21.947Z,1.73
2023-04-15T00:18:51.946Z,1.76
2023-04-15T00:19:21.945Z,1.81
2023-04-15T00:19:51.946Z,1.85
2023-04-15T00:20:21.951Z,1.86
2023-04-15T00:20:51.942Z,1.8
2023-04-15T00:21:21.948Z,1.78
2023-04-15T00:21:51.944Z,1.78
2023-04-15T00:22:21.949Z,1.75
2023-04-15T00:22:51.956Z,1.72
2023-04-15T00:23:21.958Z,1.64
2023-04-15T00:23:51.956Z,1.61
2023-04-15T00:24:21.956Z,1.63
2023-04-15T00:24:51.943Z,1.61
2023-04-15T00:25:21.952Z,1.6
2023-04-15T00:25:51.963Z,1.62
2023-04-15T00:26:21.953Z,1.63
2023-04-15T00:26:51.947Z,1.64
2023-04-15T00:27:21.951Z,1.63
2023-04-15T00:27:51.949Z,1.62
2023-04-15T00:28:21.964Z,1.64
2023-04-15T00:28:51.945Z,1.63
2023-04-15T00:29:21.973Z,1.65
2023-04-15T00:29:51.962Z,1.68
2023-04-15T00:30:21.968Z,1.71
2023-04-15T00:30:52.012Z,1.72
2023-04-15T00:31:22.138Z,1.74
2023-04-15T00:31:51.944Z,1.7
2023-04-15T00:32:21.982Z,1.71
2023-04-15T00:32:52.009Z,1.69
2023-04-15T00:33:21.954Z,1.67
2023-04-15T00:33:51.948Z,1.61
2023-04-15T00:34:21.953Z,1.61
2023-04-15T00:34:51.948Z,1.62
2023-04-15T00:35:21.958Z,1.6
2023-04-15T00:35:51.952Z,1.56
2023-04-15T00:36:21.954Z,1.52
2023-04-15T00:36:51.953Z,1.55
2023-04-15T00:37:21.951Z,1.61
2023-04-15T00:37:51.950Z,1.61
2023-04-15T00:38:21.954Z,1.59
2023-04-15T00:38:51.975Z,1.54
2023-04-15T00:39:21.950Z,1.53
2023-04-15T00:39:51.960Z,1.5
2023-04-15T00:40:21.966Z,1.48
2023-04-15T00:40:51.956Z,1.46
2023-04-15T00:41:21.954Z,1.49
2023-04-15T00:41:51.956Z,1.52
2023-04-15T00:42:21.983Z,1.5
2023-04-15T00:42:51.954Z,1.51
2023-04-15T00:43:21.958Z,1.52
2023-04-15T00:43:51.956Z,1.53
2023-04-15T00:44:21.956Z,1.55
2023-04-15T00:44:51.957Z,1.56
2023-04-15T00:45:21.962Z,1.49
2023-04-15T00:45:51.988Z,1.47
2023-04-15T00:46:21.992Z,1.48
2023-04-15T00:46:51.952Z,1.49
2023-04-15T00:47:21.951Z,1.49
2023-04-15T00:47:52.043Z,1.52
2023-04-15T00:48:21.951Z,1.56
2023-04-15T00:48:51.954Z,1.53
2023-04-15T00:49:21.959Z,1.51
2023-04-15T00:49:51.953Z,1.5
2023-04-15T00:50:21.952Z,1.51
2023-04-15T00:50:51.966Z,1.48
2023-04-15T00:51:21.955Z,1.48
2023-04-15T00:51:51.953Z,1.48
2023-04-15T00:52:21.948Z,1.47
2023-04-15T00:52:51.964Z,1.48
2023-04-15T00:53:21.964Z,1.5
2023-04-15T00:53:51.946Z,1.49
2023-04-15T00:54:21.951Z,1.44
2023-04-15T00:54:51.953Z,1.41
2023-04-15T00:55:21.958Z,1.41
2023-04-15T00:55:51.949Z,1.42
2023-04-15T00:56:21.954Z,1.44
2023-04-15T00:56:51.953Z,1.43
2023-04-15T00:57:21.950Z,1.4
2023-04-15T00:57:51.954Z,1.39
2023-04-15T00:58:21.961Z,1.39
2023-04-15T00:58:51.952Z,1.41
2023-04-15T00:59:21.947Z,1.42
2023-04-15T00:59:51.963Z,1.44
2023-04-15T01:00:21.953Z,1.44
2023-04-15T01:00:51.953Z,1.42
2023-04-15T01:01:21.990Z,1.41
2023-04-15T01:01:52.078Z,1.39
2023-04-15T01:02:22.035Z,1.38
2023-04-15T01:02:52.165Z,1.36
2023-04-15T01:03:22.210Z,1.37
2023-04-15T01:03:52.130Z,1.36
2023-04-15T01:04:22.002Z,1.36
2023-04-15T01:04:51.950Z,1.35
2023-04-15T01:05:21.948Z,1.3
2023-04-15T01:05:51.999Z,1.27
2023-04-15T01:06:21.951Z,1.28
2023-04-15T01:06:52.015Z,1.3
2023-04-15T01:07:21.949Z,1.32
2023-04-15T01:07:51.981Z,1.34
2023-04-15T01:08:21.946Z,1.35
2023-04-15T01:08:51.979Z,1.32
2023-04-15T01:09:21.967Z,1.32
2023-04-15T01:09:52.030Z,1.3
2023-04-15T01:10:21.949Z,1.28
2023-04-15T01:10:51.995Z,1.3
2023-04-15T01:11:21.949Z,1.3
2023-04-15T01:11:52.003Z,1.29
2023-04-15T01:12:21.954Z,1.28
2023-04-15T01:12:51.962Z,1.26
2023-04-15T01:13:21.952Z,1.21
2023-04-15T01:13:52.063Z,1.19
2023-04-15T01:14:21.959Z,1.18
2023-04-15T01:14:52.023Z,1.15
2023-04-15T01:15:21.955Z,1.13
2023-04-15T01:15:52.014Z,1.12
2023-04-15T01:16:22.007Z,1.14
2023-04-15T01:16:51.946Z,1.16
2023-04-15T01:17:22.002Z,1.15
2023-04-15T01:17:51.988Z,1.12
2023-04-15T01:18:21.953Z,1.06
2023-04-15T01:18:51.956Z,1.06
2023-04-15T01:19:21.946Z,1.08
2023-04-15T01:19:51.950Z,1.13
2023-04-15T01:20:21.953Z,1.18
2023-04-15T01:20:51.954Z,1.19
2023-04-15T01:21:21.974Z,1.21
2023-04-15T01:21:51.973Z,1.16
2023-04-15T01:22:21.951Z,1.11
2023-04-15T01:22:51.964Z,1.05
2023-04-15T01:23:21.948Z,1.01
2023-04-15T01:23:51.951Z,1
2023-04-15T01:24:21.952Z,0.97
2023-04-15T01:24:51.951Z,0.96
2023-04-15T01:25:21.949Z,0.97
2023-04-15T01:25:51.954Z,1
2023-04-15T01:26:21.952Z,0.98
2023-04-15T01:26:51.952Z,0.98
2023-04-15T01:27:21.961Z,0.96
2023-04-15T01:27:51.959Z,0.94
2023-04-15T01:28:21.950Z,0.95
2023-04-15T01:28:51.949Z,0.94
2023-04-15T01:29:21.954Z,0.92
2023-04-15T01:29:51.951Z,0.87
2023-04-15T01:30:21.954Z,0.83
2023-04-15T01:30:51.961Z,0.85
2023-04-15T01:31:22.000Z,0.86
2023-04-15T01:31:52.029Z,0.88
2023-04-15T01:32:21.979Z,0.85
2023-04-15T01:32:51.980Z,0.84
2023-04-15T01:33:21.957Z,0.85
2023-04-15T01:33:51.966Z,0.82
2023-04-15T01:34:21.987Z,0.83
2023-04-15T01:34:51.964Z,0.88
2023-04-15T01:35:21.952Z,0.9
2023-04-15T01:35:51.952Z,0.92
2023-04-15T01:36:21.956Z,0.9
2023-04-15T01:36:51.953Z,0.85
2023-04-15T01:37:21.961Z,0.83
2023-04-15T01:37:51.956Z,0.86
2023-04-15T01:38:21.971Z,0.85
2023-04-15T01:38:51.953Z,0.87
2023-04-15T01:39:21.956Z,0.84
2023-04-15T01:39:51.952Z,0.84
2023-04-15T01:40:21.965Z,0.87
2023-04-15T01:40:51.949Z,0.9
2023-04-15T01:41:21.959Z,0.88
2023-04-15T01:41:51.964Z,0.87
2023-04-15T01:42:21.960Z,0.86
2023-04-15T01:42:51.961Z,0.87
2023-04-15T01:43:21.966Z,0.9
2023-04-15T01:43:51.954Z,0.89
2023-04-15T01:44:21.956Z,0.92
2023-04-15T01:44:51.988Z,0.92
2023-04-15T01:45:21.957Z,0.88
2023-04-15T01:45:51.959Z,0.85
2023-04-15T01:46:22.089Z,0.87
2023-04-15T01:46:52.063Z,0.89
2023-04-15T01:47:21.971Z,0.88
2023-04-15T01:47:51.984Z,0.89
2023-04-15T01:48:21.959Z,0.89
2023-04-15T01:48:51.956Z,0.88
2023-04-15T01:49:21.961Z,0.88
2023-04-15T01:49:51.964Z,0.9
2023-04-15T01:50:21.974Z,0.92
2023-04-15T01:50:51.955Z,0.95
2023-04-15T01:51:21.960Z,0.91
2023-04-15T01:51:51.969Z,0.89
2023-04-15T01:52:21.963Z,0.82
2023-04-15T01:52:51.957Z,0.78
2023-04-15T01:53:21.967Z,0.77
2023-04-15T01:53:51.983Z,0.82
2023-04-15T01:54:21.966Z,0.88
2023-04-15T01:54:51.963Z,0.92
2023-04-15T01:55:21.964Z,0.91
2023-04-15T01:55:51.959Z,0.91
2023-04-15T01:56:21.964Z,0.92
2023-04-15T01:56:51.968Z,0.96
2023-04-15T01:57:22.022Z,0.97
2023-04-15T01:57:51.960Z,0.97
2023-04-15T01:58:21.989Z,0.98
2023-04-15T01:58:51.956Z,0.95
2023-04-15T01:59:21.959Z,0.93
2023-04-15T01:59:51.966Z,0.92
2023-04-15T02:00:21.959Z,0.94
2023-04-15T02:00:51.993Z,0.92
2023-04-15T02:01:22.017Z,0.89
2023-04-15T02:01:51.976Z,0.89
2023-04-15T02:02:22.068Z,0.91
2023-04-15T02:02:51.999Z,0.9
2023-04-15T02:03:22.171Z,0.85
2023-04-15T02:03:51.999Z,0.81
2023-04-15T02:04:21.973Z,0.79
2023-04-15T02:04:51.960Z,0.8
2023-04-15T02:05:21.956Z,0.82
2023-04-15T02:05:51.960Z,0.83
2023-04-15T02:06:21.959Z,0.84
2023-04-15T02:06:51.965Z,0.85
2023-04-15T02:07:21.957Z,0.84
2023-04-15T02:07:51.958Z,0.81
2023-04-15T02:08:21.978Z,0.84
2023-04-15T02:08:51.960Z,0.83
2023-04-15T02:09:21.959Z,0.84
2023-04-15T02:09:51.969Z,0.81
2023-04-15T02:10:21.966Z,0.77
2023-04-15T02:10:51.964Z,0.79
2023-04-15T02:11:21.969Z,0.83
2023-04-15T02:11:51.967Z,0.84
2023-04-15T02:12:21.965Z,0.82
2023-04-15T02:12:51.983Z,0.83
2023-04-15T02:13:21.969Z,0.85
2023-04-15T02:13:51.960Z,0.87
2023-04-15T02:14:21.955Z,0.92
2023-04-15T02:14:51.965Z,0.89
2023-04-15T02:15:21.964Z,0.92
2023-04-15T02:15:51.958Z,0.96
2023-04-15T02:16:22.002Z,0.99
2023-04-15T02:16:52.034Z,1.01
2023-04-15T02:17:22.010Z,1.05
2023-04-15T02:17:51.980Z,1.03
2023-04-15T02:18:21.962Z,0.98
2023-04-15T02:18:51.971Z,0.92
2023-04-15T02:19:21.960Z,0.9
2023-04-15T02:19:51.960Z,0.88
2023-04-15T02:20:21.959Z,0.88
2023-04-15T02:20:51.966Z,0.88
2023-04-15T02:21:21.963Z,0.92
2023-04-15T02:21:51.963Z,0.97
2023-04-15T02:22:21.970Z,1.01
2023-04-15T02:22:51.958Z,1.03
2023-04-15T02:23:21.957Z,1
2023-04-15T02:23:53.960Z,1.01
2023-04-15T02:24:21.958Z,1.04
2023-04-15T02:24:51.974Z,1.06
2023-04-15T02:25:21.969Z,1.07
2023-04-15T02:25:53.522Z,1.11
2023-04-15T02:26:21.971Z,1.13
2023-04-15T02:26:51.975Z,1.15
2023-04-15T02:27:21.964Z,1.1
2023-04-15T02:27:51.960Z,1.03
2023-04-15T02:28:22.034Z,1.03
2023-04-15T02:28:51.960Z,1.09
2023-04-15T02:29:21.974Z,1.14
2023-04-15T02:29:51.966Z,1.2
2023-04-15T02:30:21.955Z,1.2
2023-04-15T02:30:51.959Z,1.11
2023-04-15T02:31:22.037Z,1
2023-04-15T02:31:52.001Z,0.9
2023-04-15T02:32:22.049Z,0.88
2023-04-15T02:32:52.014Z,0.9
2023-04-15T02:33:21.962Z,0.95
2023-04-15T02:33:51.962Z,0.96
2023-04-15T02:34:21.961Z,0.97
2023-04-15T02:34:51.995Z,1
2023-04-15T02:35:21.972Z,1.07
2023-04-15T02:35:51.962Z,1.17
2023-04-15T02:36:21.968Z,1.21
2023-04-15T02:36:51.971Z,1.27
2023-04-15T02:37:21.962Z,1.31
2023-04-15T02:37:51.960Z,1.35
2023-04-15T02:38:21.967Z,1.35
2023-04-15T02:38:51.980Z,1.27
2023-04-15T02:39:21.969Z,1.23
2023-04-15T02:39:51.975Z,1.2
2023-04-15T02:40:21.997Z,1.17
2023-04-15T02:40:51.974Z,1.16
2023-04-15T02:41:21.976Z,1.22
2023-04-15T02:41:51.968Z,1.28
2023-04-15T02:42:21.968Z,1.34
2023-04-15T02:42:51.966Z,1.42
2023-04-15T02:43:21.970Z,1.41
2023-04-15T02:43:51.963Z,1.37
2023-04-15T02:44:21.965Z,1.36
2023-04-15T02:44:51.962Z,1.38
2023-04-15T02:45:21.966Z,1.41
2023-04-15T02:45:52.015Z,1.42
2023-04-15T02:46:21.995Z,1.44
2023-04-15T02:46:51.962Z,1.45
2023-04-15T02:47:21.979Z,1.51
2023-04-15T02:47:51.977Z,1.57
2023-04-15T02:48:21.972Z,1.51
2023-04-15T02:48:51.962Z,1.5
2023-04-15T02:49:21.967Z,1.51
2023-04-15T02:49:51.963Z,1.51
2023-04-15T02:50:21.971Z,1.55
2023-04-15T02:50:52.103Z,1.62
2023-04-15T02:51:21.976Z,1.63
2023-04-15T02:51:51.970Z,1.61
2023-04-15T02:52:21.978Z,1.52
2023-04-15T02:52:51.962Z,1.51
2023-04-15T02:53:21.993Z,1.57
2023-04-15T02:53:51.969Z,1.58
2023-04-15T02:54:21.968Z,1.54
2023-04-15T02:54:51.970Z,1.55
2023-04-15T02:55:21.979Z,1.56
2023-04-15T02:55:51.969Z,1.59
2023-04-15T02:56:21.966Z,1.61
2023-04-15T02:56:51.981Z,1.6
2023-04-15T02:57:21.962Z,1.57
2023-04-15T02:57:51.958Z,1.61
2023-04-15T02:58:21.963Z,1.66
2023-04-15T02:58:51.964Z,1.64
2023-04-15T02:59:21.970Z,1.63
2023-04-15T02:59:51.964Z,1.68
2023-04-15T03:00:21.967Z,1.73
2023-04-15T03:00:51.966Z,1.77
2023-04-15T03:01:22.011Z,1.78
2023-04-15T03:01:52.025Z,1.77
2023-04-15T03:02:22.060Z,1.69
2023-04-15T03:02:52.189Z,1.63
2023-04-15T03:03:22.060Z,1.56
2023-04-15T03:03:52.055Z,1.53
2023-04-15T03:04:22.042Z,1.56
2023-04-15T03:04:51.980Z,1.63
2023-04-15T03:05:21.967Z,1.65
2023-04-15T03:05:51.967Z,1.67
2023-04-15T03:06:21.968Z,1.65
2023-04-15T03:06:51.961Z,1.63
2023-04-15T03:07:21.981Z,1.69
2023-04-15T03:07:51.960Z,1.64
2023-04-15T03:08:21.969Z,1.58
2023-04-15T03:08:51.964Z,1.61
2023-04-15T03:09:21.967Z,1.65
2023-04-15T03:09:51.964Z,1.7
2023-04-15T03:10:21.981Z,1.76
2023-04-15T03:10:51.962Z,1.85
2023-04-15T03:11:21.959Z,1.95
2023-04-15T03:11:51.958Z,2.02
2023-04-15T03:12:21.961Z,2
2023-04-15T03:12:51.963Z,2.05
2023-04-15T03:13:21.962Z,2.11
2023-04-15T03:13:51.964Z,2.15
2023-04-15T03:14:21.965Z,2.21
2023-04-15T03:14:51.963Z,2.29
2023-04-15T03:15:21.957Z,2.33
2023-04-15T03:15:52.024Z,2.32
2023-04-15T03:16:22.088Z,2.28
2023-04-15T03:16:51.996Z,2.22
2023-04-15T03:17:21.975Z,2.15
2023-04-15T03:17:51.998Z,2.18
2023-04-15T03:18:21.962Z,2.23
2023-04-15T03:18:51.965Z,2.34
2023-04-15T03:19:21.956Z,2.43
2023-04-15T03:19:51.960Z,2.51
2023-04-15T03:20:22.028Z,2.53
2023-04-15T03:20:51.976Z,2.59
2023-04-15T03:21:21.957Z,2.6
2023-04-15T03:21:51.960Z,2.54
2023-04-15T03:22:21.960Z,2.48
2023-04-15T03:22:51.962Z,2.42
2023-04-15T03:23:21.962Z,2.37
2023-04-15T03:23:51.968Z,2.32
2023-04-15T03:24:21.966Z,2.35
2023-04-15T03:24:51.972Z,2.28
2023-04-15T03:25:21.974Z,2.28
2023-04-15T03:25:51.963Z,2.29
2023-04-15T03:26:21.962Z,2.3
2023-04-15T03:26:51.969Z,2.35
2023-04-15T03:27:21.965Z,2.34
2023-04-15T03:27:51.967Z,2.35
2023-04-15T03:28:21.965Z,2.42
2023-04-15T03:28:51.968Z,2.45
2023-04-15T03:29:21.961Z,2.47
2023-04-15T03:29:51.970Z,2.52
2023-04-15T03:30:21.976Z,2.57
2023-04-15T03:30:52.030Z,2.59
2023-04-15T03:31:22.050Z,2.62
2023-04-15T03:31:51.966Z,2.64
2023-04-15T03:32:22.040Z,2.64
2023-04-15T03:32:52.024Z,2.58
2023-04-15T03:33:21.965Z,2.54
2023-04-15T03:33:51.971Z,2.58
2023-04-15T03:34:21.959Z,2.6
2023-04-15T03:34:51.969Z,2.61
2023-04-15T03:35:21.976Z,2.64
2023-04-15T03:35:51.974Z,2.65
2023-04-15T03:36:21.958Z,2.67
2023-04-15T03:36:51.960Z,2.67
2023-04-15T03:37:21.966Z,2.68
2023-04-15T03:37:51.965Z,2.66
2023-04-15T03:38:21.977Z,2.7
2023-04-15T03:38:51.975Z,2.73
2023-04-15T03:39:21.964Z,2.76
2023-04-15T03:39:51.972Z,2.82
2023-04-15T03:40:21.963Z,2.78
2023-04-15T03:40:51.974Z,2.76
2023-04-15T03:41:21.962Z,2.75
2023-04-15T03:41:51.961Z,2.71
2023-04-15T03:42:21.969Z,2.76
2023-04-15T03:42:51.973Z,2.84
2023-04-15T03:43:21.961Z,2.86
2023-04-15T03:43:51.965Z,2.91
2023-04-15T03:44:21.960Z,2.99
2023-04-15T03:44:51.962Z,3.12
2023-04-15T03:45:21.959Z,3.22
2023-04-15T03:45:51.971Z,3.28
2023-04-15T03:46:21.995Z,3.33
2023-04-15T03:46:52.062Z,3.38
2023-04-15T03:47:22.004Z,3.4
2023-04-15T03:47:51.977Z,3.46
2023-04-15T03:48:21.996Z,3.52
2023-04-15T03:48:51.971Z,3.53
2023-04-15T03:49:21.972Z,3.51
2023-04-15T03:49:51.969Z,3.42
2023-04-15T03:50:21.974Z,3.42
2023-04-15T03:50:51.962Z,3.47
2023-04-15T03:51:21.968Z,3.54
2023-04-15T03:51:51.964Z,3.55
2023-04-15T03:52:21.974Z,3.51
2023-04-15T03:52:51.977Z,3.49
2023-04-15T03:53:21.960Z,3.56
2023-04-15T03:53:51.964Z,3.65
2023-04-15T03:54:21.973Z,3.73
2023-04-15T03:54:51.963Z,3.81
2023-04-15T03:55:21.972Z,3.88
2023-04-15T03:55:51.962Z,3.92
2023-04-15T03:56:21.971Z,3.87
2023-04-15T03:56:51.964Z,3.89
2023-04-15T03:57:21.972Z,3.89
2023-04-15T03:57:51.967Z,3.86
2023-04-15T03:58:21.975Z,3.81
2023-04-15T03:58:51.968Z,3.78
2023-04-15T03:59:21.974Z,3.77
2023-04-15T03:59:51.971Z,3.82
2023-04-15T04:00:21.968Z,3.87
2023-04-15T04:00:51.966Z,3.9
2023-04-15T04:01:21.968Z,3.95
2023-04-15T04:01:52.038Z,3.92
2023-04-15T04:02:22.119Z,3.88
2023-04-15T04:02:52.149Z,3.91
2023-04-15T04:03:22.184Z,3.99
2023-04-15T04:03:52.130Z,4.05
2023-04-15T04:04:22.087Z,4.07
2023-04-15T04:04:52.064Z,4.13
2023-04-15T04:05:21.979Z,4.18
2023-04-15T04:05:51.962Z,4.22
2023-04-15T04:06:21.973Z,4.22
2023-04-15T04:06:51.974Z,4.17
2023-04-15T04:07:21.981Z,4.15
2023-04-15T04:07:51.980Z,4.17
2023-04-15T04:08:21.972Z,4.22
2023-04-15T04:08:51.977Z,4.42
2023-04-15T04:09:21.968Z,5.01
2023-04-15T04:09:51.967Z,6.01
2023-04-15T04:10:21.983Z,6.95
2023-04-15T04:10:51.963Z,8.04
2023-04-15T04:11:21.986Z,9.08
2023-04-15T04:11:51.971Z,9.91
2023-04-15T04:12:21.965Z,10.45
2023-04-15T04:12:51.968Z,11.03
2023-04-15T04:13:21.972Z,11.59
2023-04-15T04:13:51.976Z,12.16
2023-04-15T04:14:21.970Z,12.6
2023-04-15T04:14:51.969Z,12.9
2023-04-15T04:15:21.969Z,13.12
2023-04-15T04:15:52.005Z,13.3
2023-04-15T04:16:22.094Z,13.59
2023-04-15T04:16:52.010Z,13.92
2023-04-15T04:17:21.996Z,14.66
2023-04-15T04:17:52.003Z,15.45
2023-04-15T04:18:21.988Z,15.99
2023-04-15T04:18:51.973Z,16.31
2023-04-15T04:19:21.979Z,15.98
2023-04-15T04:19:51.981Z,15.29
2023-04-15T04:20:21.971Z,15.06
2023-04-15T04:20:51.976Z,14.75
2023-04-15T04:21:21.976Z,14.83
2023-04-15T04:21:51.978Z,14.95
2023-04-15T04:22:21.966Z,15.04
2023-04-15T04:22:51.986Z,15.39
2023-04-15T04:23:21.969Z,15.85
2023-04-15T04:23:51.967Z,15.97
2023-04-15T04:24:21.977Z,16.32
2023-04-15T04:24:51.970Z,16.77
2023-04-15T04:25:21.967Z,16.86
2023-04-15T04:25:51.964Z,16.97
2023-04-15T04:26:21.967Z,17.23
2023-04-15T04:26:51.971Z,17.4
2023-04-15T04:27:21.963Z,17.46
2023-04-15T04:27:51.970Z,17.35
2023-04-15T04:28:21.963Z,17.15
2023-04-15T04:28:51.972Z,17.21
2023-04-15T04:29:21.974Z,17.53
2023-04-15T04:29:51.973Z,18.09
2023-04-15T04:30:21.975Z,18.75
2023-04-15T04:30:51.999Z,18.69
2023-04-15T04:31:22.024Z,18.73
2023-04-15T04:31:52.049Z,18.87
2023-04-15T04:32:21.991Z,18.77
2023-04-15T04:32:52.009Z,18.49
2023-04-15T04:33:21.971Z,18.11
2023-04-15T04:33:51.969Z,17.32
2023-04-15T04:34:21.965Z,16.18
2023-04-15T04:34:51.976Z,14.8
2023-04-15T04:35:21.970Z,13.34
2023-04-15T04:35:51.969Z,12.04
2023-04-15T04:36:21.986Z,11.06
2023-04-15T04:36:51.987Z,10.26
2023-04-15T04:37:21.964Z,9.57
2023-04-15T04:37:51.976Z,8.94
2023-04-15T04:38:21.978Z,8.41
2023-04-15T04:38:51.977Z,7.97
2023-04-15T04:39:21.965Z,7.55
2023-04-15T04:39:51.966Z,7.33
2023-04-15T04:40:21.971Z,7.2
2023-04-15T04:40:51.972Z,7.15
2023-04-15T04:41:21.968Z,7.08
2023-04-15T04:41:51.970Z,7.11
2023-04-15T04:42:21.964Z,7.34
2023-04-15T04:42:51.974Z,7.7
2023-04-15T04:43:21.972Z,8.2
2023-04-15T04:43:51.974Z,9.01
2023-04-15T04:44:21.981Z,10.04
2023-04-15T04:44:51.965Z,11.45
2023-04-15T04:45:21.969Z,13.14
2023-04-15T04:45:52.019Z,14.32
2023-04-15T04:46:22.008Z,14.91
2023-04-15T04:46:51.977Z,15.4
2023-04-15T04:47:21.976Z,16.08
2023-04-15T04:47:52.017Z,16.69
2023-04-15T04:48:21.968Z,17.16
2023-04-15T04:48:51.964Z,17.73
2023-04-15T04:49:21.971Z,18.19
2023-04-15T04:49:51.968Z,19.09
2023-04-15T04:50:21.991Z,19.62
2023-04-15T04:50:51.970Z,19.78
2023-04-15T04:51:21.974Z,19.98
2023-04-15T04:51:51.974Z,20.55
2023-04-15T04:52:21.975Z,21.34
2023-04-15T04:52:51.971Z,21.89
2023-04-15T04:53:21.968Z,22.24
2023-04-15T04:53:51.970Z,22.64
2023-04-15T04:54:21.972Z,22.95
2023-04-15T04:54:51.981Z,23.35
2023-04-15T04:55:21.971Z,23.8
2023-04-15T04:55:51.969Z,24.26
2023-04-15T04:56:21.973Z,24.46
2023-04-15T04:56:51.969Z,24.77
2023-04-15T04:57:21.972Z,24.83
2023-04-15T04:57:51.984Z,24.65
2023-04-15T04:58:22.004Z,24.26
2023-04-15T04:58:51.972Z,23.69
2023-04-15T04:59:21.995Z,23.23
2023-04-15T04:59:51.996Z,23.09
2023-04-15T05:00:21.984Z,23
2023-04-15T05:00:52.027Z,22.91
2023-04-15T05:01:22.058Z,23.14
2023-04-15T05:01:51.981Z,22.89
2023-04-15T05:02:22.113Z,23.05
2023-04-15T05:02:52.062Z,23.57
2023-04-15T05:03:22.129Z,23.85
2023-04-15T05:03:52.130Z,23.9
2023-04-15T05:04:21.971Z,23.76
2023-04-15T05:04:51.972Z,23.43
2023-04-15T05:05:21.975Z,23.03
2023-04-15T05:05:51.980Z,22.76
2023-04-15T05:06:21.984Z,22.42
2023-04-15T05:06:51.977Z,22.44
2023-04-15T05:07:21.979Z,22.24
2023-04-15T05:07:51.978Z,21.63
2023-04-15T05:08:21.977Z,20.56
2023-04-15T05:08:51.978Z,20.36
2023-04-15T05:09:21.981Z,20.33
2023-04-15T05:09:51.972Z,20.44
2023-04-15T05:10:21.980Z,20.4
2023-04-15T05:10:51.980Z,20.44
2023-04-15T05:11:21.978Z,20.89
2023-04-15T05:11:51.980Z,21.59
2023-04-15T05:12:21.980Z,22.03
2023-04-15T05:12:51.975Z,22.51
2023-04-15T05:13:21.978Z,22.74
2023-04-15T05:13:51.974Z,22.98
2023-04-15T05:14:23.322Z,23.45
2023-04-15T05:14:51.984Z,24.45
2023-04-15T05:15:22.004Z,24.58
2023-04-15T05:15:51.998Z,24.7
2023-04-15T05:16:22.012Z,24.82
2023-04-15T05:16:51.972Z,25.06
2023-04-15T05:17:22.010Z,25.37
2023-04-15T05:17:52.022Z,25.54
2023-04-15T05:18:21.983Z,25.69
2023-04-15T05:18:52.019Z,25.79
2023-04-15T05:19:21.979Z,25.61
2023-04-15T05:19:51.978Z,24.7
2023-04-15T05:20:22.005Z,24.06
2023-04-15T05:20:51.991Z,24.28
2023-04-15T05:21:21.986Z,24.53
2023-04-15T05:21:51.987Z,24.88
2023-04-15T05:22:21.987Z,24.88
2023-04-15T05:22:51.982Z,24.68
2023-04-15T05:23:21.982Z,24.74
2023-04-15T05:23:51.982Z,24.29
2023-04-15T05:24:21.988Z,23.63
2023-04-15T05:24:51.992Z,23.25
2023-04-15T05:25:21.985Z,23.05
2023-04-15T05:25:51.976Z,23.08
2023-04-15T05:26:21.983Z,23.29
2023-04-15T05:26:51.987Z,23.45
2023-04-15T05:27:21.978Z,23.71
2023-04-15T05:27:51.992Z,24.1
2023-04-15T05:28:21.982Z,24.48
2023-04-15T05:28:51.991Z,24.7
2023-04-15T05:29:21.984Z,24.97
2023-04-15T05:29:51.984Z,25.14
2023-04-15T05:30:21.984Z,25.38
2023-04-15T05:30:52.011Z,25.81
2023-04-15T05:31:22.030Z,26.26
2023-04-15T05:31:52.005Z,26.22
2023-04-15T05:32:22.018Z,26.32
2023-04-15T05:32:52.039Z,26.5
2023-04-15T05:33:21.990Z,25.94
2023-04-15T05:33:51.978Z,25.49
2023-04-15T05:34:21.986Z,25
2023-04-15T05:34:51.983Z,25.07
2023-04-15T05:35:21.983Z,25.44
2023-04-15T05:35:52.008Z,25.77
2023-04-15T05:36:22.009Z,25.46
2023-04-15T05:36:51.992Z,25.24
2023-04-15T05:37:21.989Z,25.12
2023-04-15T05:37:51.986Z,24.8
2023-04-15T05:38:21.997Z,25.04
2023-04-15T05:38:51.979Z,24.98
2023-04-15T05:39:22.019Z,25.46
2023-04-15T05:39:51.988Z,26
2023-04-15T05:40:21.988Z,26.86
2023-04-15T05:40:51.983Z,27.12
2023-04-15T05:41:21.988Z,27.18
2023-04-15T05:41:51.991Z,27.48
2023-04-15T05:42:21.982Z,27.4
2023-04-15T05:42:51.994Z,27.32
2023-04-15T05:43:21.997Z,27.56
2023-04-15T05:43:51.983Z,27.58
2023-04-15T05:44:21.996Z,27.5
2023-04-15T05:44:51.990Z,27.11
2023-04-15T05:45:21.990Z,26.53
2023-04-15T05:45:52.024Z,26.45
2023-04-15T05:46:22.053Z,26.39
2023-04-15T05:46:51.989Z,26.27
2023-04-15T05:47:22.011Z,26.37
2023-04-15T05:47:52.052Z,26.58
2023-04-15T05:48:22.003Z,27.08
2023-04-15T05:48:52.193Z,27.3
2023-04-15T05:49:21.988Z,27.44
2023-04-15T05:49:51.987Z,27.34
2023-04-15T05:50:22.012Z,27.14
2023-04-15T05:50:51.991Z,27.19
2023-04-15T05:51:21.995Z,27.36
2023-04-15T05:51:51.999Z,27.95
2023-04-15T05:52:22.060Z,28.33
2023-04-15T05:52:51.993Z,28.13
2023-04-15T05:53:21.994Z,27.32
2023-04-15T05:53:51.994Z,27.07
2023-04-15T05:54:22.022Z,27.34
2023-04-15T05:54:51.996Z,27.86
2023-04-15T05:55:21.987Z,28.16
2023-04-15T05:55:51.991Z,28.6
2023-04-15T05:56:22.038Z,29.09
2023-04-15T05:56:51.993Z,29.61
2023-04-15T05:57:21.999Z,30.17
2023-04-15T05:57:52.035Z,30.54
2023-04-15T05:58:21.993Z,30.33
2023-04-15T05:58:53.743Z,29.91
2023-04-15T05:59:21.997Z,29.87
2023-04-15T05:59:51.990Z,30.11
2023-04-15T06:00:21.988Z,30.31
2023-04-15T06:00:51.989Z,29.94
2023-04-15T06:01:21.996Z,29.51
2023-04-15T06:01:52.050Z,29.19
2023-04-15T06:02:22.137Z,28.29
2023-04-15T06:02:52.087Z,27.93
2023-04-15T06:03:22.086Z,27.66
2023-04-15T06:03:52.180Z,27.48
2023-04-15T06:04:22.149Z,27.11
2023-04-15T06:04:52.013Z,26.81
2023-04-15T06:05:22.002Z,26.49
2023-04-15T06:05:51.996Z,26.35
2023-04-15T06:06:21.997Z,26.32
2023-04-15T06:06:52.000Z,26.56
2023-04-15T06:07:22.006Z,26.77
2023-04-15T06:07:51.991Z,26.87
2023-04-15T06:08:21.999Z,27.03
2023-04-15T06:08:51.998Z,27.37
2023-04-15T06:09:22.007Z,27.57
2023-04-15T06:09:52.019Z,28.03
2023-04-15T06:10:21.998Z,28.63
2023-04-15T06:10:51.990Z,28.78
2023-04-15T06:11:21.999Z,28.49
2023-04-15T06:11:52.007Z,28.33
2023-04-15T06:12:22.009Z,28.78
2023-04-15T06:12:51.994Z,28.92
2023-04-15T06:13:22.000Z,28.92
2023-04-15T06:13:51.994Z,29.09
2023-04-15T06:14:22.004Z,29.25
2023-04-15T06:14:52.069Z,29.41
2023-04-15T06:15:22.005Z,29.33
2023-04-15T06:15:52.066Z,29.39
2023-04-15T06:16:22.092Z,29.51
2023-04-15T06:16:52.004Z,29.65
2023-04-15T06:17:22.007Z,29.8
2023-04-15T06:17:52.044Z,29.47
2023-04-15T06:18:22.002Z,29.28
2023-04-15T06:18:51.993Z,29.4
2023-04-15T06:19:21.998Z,29.75
2023-04-15T06:19:51.997Z,29.37
2023-04-15T06:20:21.997Z,29.14
2023-04-15T06:20:52.005Z,29.34
2023-04-15T06:21:22.003Z,29.73
2023-04-15T06:21:52.014Z,30.2
2023-04-15T06:22:22.013Z,30.6
2023-04-15T06:22:51.999Z,30.68
2023-04-15T06:23:22.007Z,30.56
2023-04-15T06:23:52.006Z,30.72
2023-04-15T06:24:22.000Z,30.77
2023-04-15T06:24:51.998Z,30.6
2023-04-15T06:25:22.000Z,30.35
2023-04-15T06:25:52.002Z,29.77
2023-04-15T06:26:22.001Z,29.47
2023-04-15T06:26:52.008Z,29.63
2023-04-15T06:27:22.005Z,30.13
2023-04-15T06:27:52.003Z,30.49
2023-04-15T06:28:22.007Z,30.71
2023-04-15T06:28:52.000Z,31.01
2023-04-15T06:29:22.008Z,30.86
2023-04-15T06:29:52.009Z,30.61
2023-04-15T06:30:23.926Z,30.49
2023-04-15T06:30:51.999Z,30.59
2023-04-15T06:31:22.016Z,30.78
2023-04-15T06:31:52.073Z,30.65
2023-04-15T06:32:22.060Z,30.51
2023-04-15T06:32:52.021Z,30.82
2023-04-15T06:33:22.004Z,31.14
2023-04-15T06:33:52.002Z,30.69
2023-04-15T06:34:22.000Z,30.51
2023-04-15T06:34:52.005Z,30.69
2023-04-15T06:35:22.007Z,30.97
2023-04-15T06:35:52.001Z,30.81
2023-04-15T06:36:22.000Z,31.13